Terminal Aerodrome Forecast
Issued by NWS

Home | Current Version | Previous Version | Text Only | Print | Product List | Glossary On
Versions: 1 2 3 4 5 6 7 8 9 10 11 12 13 14
303
FTUS46 KPDT 211728
TAFDLS
TAF
KDLS 211728Z 2118/2218 VRB05KT P6SM -RA SCT015 BKN035 OVC060
      TEMPO 2118/2122 4SM -RA BR SCT007 BKN015 OVC025
     FM220100 30011KT P6SM -SHRA BKN040 OVC080
     FM221000 30014KT P6SM -RA BKN035 OVC050
     FM221600 30016G23KT P6SM SCT060 BKN200=

USA.gov is the U.S. government's official web portal to all federal, state and local government web resources and services.